Time;durP1;ratioP1;P1;durP2;ratioP2;P2;SDS_P1;SDS_P2;PMS_P1;PMS_P2;Temp;Humidity;BMP_temperature;BMP_pressure;BME280_temperature;BME280_humidity;BME280_pressure;Samples;Min_cycle;Max_cycle;Signal;HPM_P1;HPM_P2
2022/01/17 00:01:34;;;;;;;9.02;5.40;;;;;;;;;;5016423;28;20394;-57
2022/01/17 00:04:00;;;;;;;6.50;5.25;;;;;;;;;;5020123;28;20041;-58
2022/01/17 00:06:26;;;;;;;6.05;5.45;;;;;;;;;;5023965;28;20184;-57
2022/01/17 00:08:51;;;;;;;7.22;5.65;;;;;;;;;;5027170;28;20029;-57
2022/01/17 00:11:19;;;;;;;5.90;4.65;;;;;;;;;;5015277;28;20029;-58
2022/01/17 00:13:46;;;;;;;7.40;5.18;;;;;;;;;;5020083;28;20438;-53
2022/01/17 00:16:20;;;;;;;6.10;4.85;;;;;;;;;;5022728;28;20026;-58
2022/01/17 00:21:13;;;;;;;7.30;5.60;;;;;;;;;;5024084;28;20144;-57
2022/01/17 00:23:39;;;;;;;6.25;4.97;;;;;;;;;;5018866;28;20025;-56
2022/01/17 00:26:05;;;;;;;10.75;6.32;;;;;;;;;;5022204;28;20045;-57
2022/01/17 00:28:31;;;;;;;9.80;6.20;;;;;;;;;;5027211;28;20234;-57
2022/01/17 00:30:59;;;;;;;8.68;5.88;;;;;;;;;;5022788;28;20025;-57
2022/01/17 00:33:25;;;;;;;8.05;5.40;;;;;;;;;;5026626;28;20033;-57
2022/01/17 00:35:50;;;;;;;7.88;5.47;;;;;;;;;;5017766;28;20029;-55
2022/01/17 00:38:16;;;;;;;11.75;7.75;;;;;;;;;;5021960;28;20403;-56
2022/01/17 00:40:42;;;;;;;12.15;7.82;;;;;;;;;;5018135;28;20033;-56
2022/01/17 00:43:09;;;;;;;15.50;8.60;;;;;;;;;;5028118;28;20037;-57
2022/01/17 00:45:38;;;;;;;13.43;8.25;;;;;;;;;;5026464;28;20029;-57
2022/01/17 00:48:03;;;;;;;20.50;10.90;;;;;;;;;;5023987;28;20065;-58
2022/01/17 00:50:31;;;;;;;20.55;10.65;;;;;;;;;;5023751;28;20671;-54
2022/01/17 00:53:03;;;;;;;14.00;9.15;;;;;;;;;;5017986;28;20134;-55
2022/01/17 00:55:30;;;;;;;16.80;9.02;;;;;;;;;;5029962;28;20065;-52
2022/01/17 00:57:55;;;;;;;12.20;8.55;;;;;;;;;;5023838;28;20038;-58
2022/01/17 01:00:21;;;;;;;12.02;8.32;;;;;;;;;;5029573;28;20057;-57
2022/01/17 01:02:47;;;;;;;23.00;10.90;;;;;;;;;;5025842;28;20482;-54
2022/01/17 01:05:14;;;;;;;16.48;10.60;;;;;;;;;;5023706;28;20045;-57
2022/01/17 01:07:40;;;;;;;12.13;7.88;;;;;;;;;;5020835;28;20026;-58
2022/01/17 01:10:10;;;;;;;9.98;6.93;;;;;;;;;;5027885;28;20076;-57
2022/01/17 01:12:42;;;;;;;20.65;12.25;;;;;;;;;;5025428;28;20057;-56
2022/01/17 01:15:13;;;;;;;16.60;10.37;;;;;;;;;;5026487;28;20116;-54
2022/01/17 01:17:51;;;;;;;13.98;8.65;;;;;;;;;;5023636;28;20025;-53
2022/01/17 01:28:27;;;;;;;8.65;4.50;;;;;;;;;;5036357;28;20029;-56
2022/01/17 01:30:55;;;;;;;7.68;5.35;;;;;;;;;;5028368;28;20394;-56
2022/01/17 01:33:42;;;;;;;10.60;5.03;;;;;;;;;;5025274;28;20025;-54
2022/01/17 01:36:17;;;;;;;6.05;4.25;;;;;;;;;;5024624;28;20108;-54
2022/01/17 01:38:43;;;;;;;7.10;4.88;;;;;;;;;;5028045;28;20461;-55
2022/01/17 01:41:09;;;;;;;7.82;5.53;;;;;;;;;;5022544;28;20503;-54
2022/01/17 01:43:34;;;;;;;7.75;4.78;;;;;;;;;;5025002;28;20037;-52
2022/01/17 01:46:02;;;;;;;6.28;4.70;;;;;;;;;;5029181;28;20037;-55
2022/01/17 01:48:34;;;;;;;8.18;5.20;;;;;;;;;;5019801;28;20069;-55
2022/01/17 01:51:01;;;;;;;9.82;5.13;;;;;;;;;;5026496;28;20049;-55
2022/01/17 01:53:27;;;;;;;7.78;5.00;;;;;;;;;;5024413;28;20074;-56
2022/01/17 01:55:57;;;;;;;7.47;6.07;;;;;;;;;;5030180;28;20976;-52
2022/01/17 01:58:25;;;;;;;10.05;5.50;;;;;;;;;;5029712;28;20483;-52
2022/01/17 02:00:51;;;;;;;7.75;5.22;;;;;;;;;;5027472;28;20028;-52
2022/01/17 02:03:17;;;;;;;11.20;5.45;;;;;;;;;;5021257;28;20466;-54
2022/01/17 02:05:44;;;;;;;7.97;5.60;;;;;;;;;;5023846;28;20061;-57
2022/01/17 02:08:10;;;;;;;9.27;6.10;;;;;;;;;;5024986;28;20056;-53
2022/01/17 02:10:36;;;;;;;8.65;5.50;;;;;;;;;;5026948;28;20033;-56
2022/01/17 02:13:02;;;;;;;9.52;5.30;;;;;;;;;;5027502;28;20037;-55
2022/01/17 02:15:28;;;;;;;7.30;5.40;;;;;;;;;;5019796;28;20030;-56
2022/01/17 02:17:55;;;;;;;6.93;5.40;;;;;;;;;;5024954;28;20125;-52
2022/01/17 02:20:41;;;;;;;8.43;5.70;;;;;;;;;;5021677;28;20053;-55
2022/01/17 02:23:08;;;;;;;9.63;5.45;;;;;;;;;;5017979;28;20057;-56
2022/01/17 02:25:34;;;;;;;9.25;5.95;;;;;;;;;;5026403;28;20527;-55
2022/01/17 02:28:00;;;;;;;9.07;5.70;;;;;;;;;;5023810;28;20030;-56
2022/01/17 02:30:31;;;;;;;9.27;5.85;;;;;;;;;;5022605;28;20026;-54
2022/01/17 02:32:58;;;;;;;8.52;5.75;;;;;;;;;;5026350;28;20032;-55
2022/01/17 02:35:25;;;;;;;9.00;6.70;;;;;;;;;;5020394;28;20079;-54
2022/01/17 02:37:51;;;;;;;10.75;7.18;;;;;;;;;;5029740;28;20294;-55
2022/01/17 02:40:19;;;;;;;12.48;8.23;;;;;;;;;;5028556;28;20029;-54
2022/01/17 02:43:00;;;;;;;13.88;8.10;;;;;;;;;;5024020;28;20043;-54
2022/01/17 02:45:35;;;;;;;12.43;7.25;;;;;;;;;;5023171;28;20467;-53
2022/01/17 02:48:11;;;;;;;10.25;7.63;;;;;;;;;;5019381;28;20033;-56
2022/01/17 02:50:39;;;;;;;11.75;8.00;;;;;;;;;;5022168;28;20080;-56
2022/01/17 02:53:10;;;;;;;12.43;7.70;;;;;;;;;;5019878;28;20059;-55
2022/01/17 02:55:38;;;;;;;12.20;8.02;;;;;;;;;;5026690;28;20029;-55
2022/01/17 02:58:03;;;;;;;13.38;8.20;;;;;;;;;;5023667;28;20470;-55
2022/01/17 03:00:29;;;;;;;12.88;7.60;;;;;;;;;;5025140;28;20033;-54
2022/01/17 03:02:55;;;;;;;11.30;7.68;;;;;;;;;;5017009;28;20038;-54
2022/01/17 03:05:21;;;;;;;12.50;7.50;;;;;;;;;;5025205;28;20487;-52
2022/01/17 03:07:48;;;;;;;12.05;7.60;;;;;;;;;;5020299;28;20033;-55
2022/01/17 03:12:59;;;;;;;13.63;7.68;;;;;;;;;;5020440;28;20117;-54
2022/01/17 03:15:25;;;;;;;12.15;7.70;;;;;;;;;;5020615;28;20037;-55
2022/01/17 03:17:51;;;;;;;9.85;6.97;;;;;;;;;;5015426;28;20044;-56
2022/01/17 03:20:17;;;;;;;8.13;6.70;;;;;;;;;;5022328;28;20116;-56
2022/01/17 03:22:44;;;;;;;10.40;7.15;;;;;;;;;;5021436;28;20530;-57
2022/01/17 03:25:10;;;;;;;10.82;7.72;;;;;;;;;;5021925;28;20124;-55
2022/01/17 03:27:35;;;;;;;14.23;8.32;;;;;;;;;;5021088;28;20049;-55
2022/01/17 03:30:01;;;;;;;10.48;7.10;;;;;;;;;;5023081;28;20053;-57
2022/01/17 03:32:28;;;;;;;10.05;7.53;;;;;;;;;;5024044;28;20830;-56
2022/01/17 03:34:55;;;;;;;11.25;7.60;;;;;;;;;;5024258;28;20025;-56
2022/01/17 03:37:22;;;;;;;13.60;7.93;;;;;;;;;;5025967;28;20502;-55
2022/01/17 03:39:48;;;;;;;12.88;8.38;;;;;;;;;;5027031;28;20032;-55
2022/01/17 03:42:14;;;;;;;11.65;7.22;;;;;;;;;;5021819;28;20104;-54
2022/01/17 03:44:39;;;;;;;12.07;8.18;;;;;;;;;;5022403;28;20533;-56
2022/01/17 03:47:06;;;;;;;12.73;8.23;;;;;;;;;;5018293;28;20029;-54
2022/01/17 03:49:31;;;;;;;12.88;7.38;;;;;;;;;;5026444;28;20037;-54
2022/01/17 03:51:57;;;;;;;14.57;6.03;;;;;;;;;;5023564;28;20440;-52
2022/01/17 03:54:23;;;;;;;9.02;6.38;;;;;;;;;;5026883;28;20021;-56
2022/01/17 03:56:49;;;;;;;9.07;6.13;;;;;;;;;;5025517;28;20037;-55
2022/01/17 03:59:14;;;;;;;12.40;7.63;;;;;;;;;;5025283;28;20540;-53
2022/01/17 04:01:40;;;;;;;13.45;8.10;;;;;;;;;;5021582;28;20390;-53
2022/01/17 04:04:06;;;;;;;12.93;7.72;;;;;;;;;;5023869;28;20033;-57
2022/01/17 04:06:33;;;;;;;12.65;7.80;;;;;;;;;;5023907;28;20060;-55
2022/01/17 04:08:59;;;;;;;11.40;7.78;;;;;;;;;;5018091;28;20029;-54
2022/01/17 04:11:24;;;;;;;9.63;7.00;;;;;;;;;;5022440;28;20043;-54
2022/01/17 04:13:50;;;;;;;12.32;8.20;;;;;;;;;;5021877;28;20084;-56
2022/01/17 04:16:16;;;;;;;10.35;7.60;;;;;;;;;;5021346;28;20029;-56
2022/01/17 04:18:42;;;;;;;12.02;7.40;;;;;;;;;;5020598;28;22376;-55
2022/01/17 04:21:08;;;;;;;12.55;7.28;;;;;;;;;;5018141;28;20601;-57
2022/01/17 04:23:34;;;;;;;15.32;7.43;;;;;;;;;;5024234;28;20043;-56
2022/01/17 04:26:00;;;;;;;12.30;7.35;;;;;;;;;;5020327;28;20113;-54
2022/01/17 04:28:26;;;;;;;16.58;8.10;;;;;;;;;;5020215;28;20037;-57
2022/01/17 04:30:51;;;;;;;12.52;7.35;;;;;;;;;;5026094;28;20052;-53
2022/01/17 04:33:17;;;;;;;12.13;7.60;;;;;;;;;;5023608;28;20038;-54
2022/01/17 04:35:44;;;;;;;10.75;7.43;;;;;;;;;;5017812;28;20052;-57
2022/01/17 04:38:15;;;;;;;13.38;7.90;;;;;;;;;;5021811;28;20092;-54
2022/01/17 04:40:44;;;;;;;15.15;6.88;;;;;;;;;;5017471;28;20033;-55
2022/01/17 04:45:56;;;;;;;14.27;6.90;;;;;;;;;;5020518;28;20045;-52
2022/01/17 04:48:22;;;;;;;9.85;6.93;;;;;;;;;;5019377;28;20044;-53
2022/01/17 04:50:47;;;;;;;11.85;7.53;;;;;;;;;;5022176;28;20037;-54
2022/01/17 04:53:17;;;;;;;13.57;7.43;;;;;;;;;;5021397;28;20064;-54
2022/01/17 04:55:43;;;;;;;11.65;7.60;;;;;;;;;;5015720;28;20478;-54
2022/01/17 04:58:09;;;;;;;15.43;9.18;;;;;;;;;;5019181;28;20518;-56
2022/01/17 05:00:34;;;;;;;15.82;9.23;;;;;;;;;;5019304;28;20029;-54
2022/01/17 05:03:00;;;;;;;16.23;9.73;;;;;;;;;;5022270;28;20546;-57
2022/01/17 05:05:26;;;;;;;15.20;9.50;;;;;;;;;;5019211;28;20128;-55
2022/01/17 05:07:52;;;;;;;16.02;7.82;;;;;;;;;;5015333;28;20128;-57
2022/01/17 05:10:21;;;;;;;8.65;6.30;;;;;;;;;;5022925;28;20036;-56
2022/01/17 05:12:47;;;;;;;12.23;6.82;;;;;;;;;;5018675;28;20575;-55
2022/01/17 05:15:53;;;;;;;10.85;6.00;;;;;;;;;;5026688;28;20037;-57
2022/01/17 05:20:41;;;;;;;10.88;6.65;;;;;;;;;;5019418;28;20049;-56
2022/01/17 05:23:07;;;;;;;14.15;6.25;;;;;;;;;;5022948;28;20148;-56
2022/01/17 05:25:33;;;;;;;9.82;5.70;;;;;;;;;;5024414;28;20029;-56
2022/01/17 05:27:59;;;;;;;9.70;5.90;;;;;;;;;;5029531;28;20090;-58
2022/01/17 05:30:25;;;;;;;8.68;5.93;;;;;;;;;;5025351;28;20083;-57
2022/01/17 05:32:52;;;;;;;7.47;5.88;;;;;;;;;;5028732;28;20487;-57
2022/01/17 05:35:19;;;;;;;9.07;6.05;;;;;;;;;;5026461;28;20075;-54
2022/01/17 05:37:46;;;;;;;7.47;5.70;;;;;;;;;;5019227;28;20033;-57
2022/01/17 05:40:15;;;;;;;8.07;5.63;;;;;;;;;;5023715;28;20045;-55
2022/01/17 05:42:40;;;;;;;9.48;5.40;;;;;;;;;;5024626;28;20045;-55
2022/01/17 05:45:08;;;;;;;8.93;5.25;;;;;;;;;;5025772;28;20044;-55
2022/01/17 05:47:34;;;;;;;9.27;5.10;;;;;;;;;;5024504;28;20025;-55
2022/01/17 05:50:02;;;;;;;8.98;5.30;;;;;;;;;;5024929;28;20036;-56
2022/01/17 05:52:31;;;;;;;8.85;4.97;;;;;;;;;;5025865;28;20049;-54
2022/01/17 05:54:59;;;;;;;6.78;4.68;;;;;;;;;;5019252;28;20030;-56
2022/01/17 05:57:25;;;;;;;5.72;4.47;;;;;;;;;;5020425;28;20100;-55
2022/01/17 05:59:52;;;;;;;7.22;4.82;;;;;;;;;;5024339;28;20030;-56
2022/01/17 06:02:18;;;;;;;6.78;4.70;;;;;;;;;;5026322;28;20026;-53
2022/01/17 06:04:44;;;;;;;5.00;4.20;;;;;;;;;;5021988;28;20026;-55
2022/01/17 06:07:09;;;;;;;6.45;4.30;;;;;;;;;;5023172;28;20026;-55
2022/01/17 06:09:35;;;;;;;5.85;4.55;;;;;;;;;;5016894;28;20434;-56
2022/01/17 06:12:02;;;;;;;7.82;5.32;;;;;;;;;;5022133;28;20033;-57
2022/01/17 06:14:30;;;;;;;9.18;6.20;;;;;;;;;;5020037;28;20025;-56
2022/01/17 06:16:55;;;;;;;10.63;5.78;;;;;;;;;;5023458;28;20040;-54
2022/01/17 06:19:21;;;;;;;11.50;5.53;;;;;;;;;;5020881;28;20033;-57
2022/01/17 06:21:47;;;;;;;6.85;5.18;;;;;;;;;;5022533;28;20053;-55
2022/01/17 06:24:13;;;;;;;8.48;5.90;;;;;;;;;;5023924;28;20028;-56
2022/01/17 06:26:41;;;;;;;8.85;6.38;;;;;;;;;;5017559;28;20025;-55
2022/01/17 06:29:09;;;;;;;11.80;8.13;;;;;;;;;;5020446;28;20042;-55
2022/01/17 06:31:35;;;;;;;8.52;6.10;;;;;;;;;;5023030;28;20045;-54
2022/01/17 06:34:02;;;;;;;9.43;6.70;;;;;;;;;;5025753;28;20398;-54
2022/01/17 06:36:28;;;;;;;16.27;6.03;;;;;;;;;;5024640;28;20079;-54
2022/01/17 06:38:54;;;;;;;11.20;6.97;;;;;;;;;;5020874;28;20037;-55
2022/01/17 06:41:20;;;;;;;8.93;5.63;;;;;;;;;;5027629;28;20463;-54
2022/01/17 06:43:47;;;;;;;10.88;6.72;;;;;;;;;;5026866;28;20510;-56
2022/01/17 06:46:14;;;;;;;6.88;5.55;;;;;;;;;;5023081;28;20045;-54
2022/01/17 06:48:41;;;;;;;8.23;5.55;;;;;;;;;;5019839;28;20033;-57
2022/01/17 06:51:07;;;;;;;8.88;7.28;;;;;;;;;;5019146;28;20033;-55
2022/01/17 06:53:33;;;;;;;9.23;7.18;;;;;;;;;;5018735;28;20489;-55
2022/01/17 06:55:59;;;;;;;14.30;8.48;;;;;;;;;;5018046;28;20034;-53
2022/01/17 06:58:26;;;;;;;10.30;7.63;;;;;;;;;;5021132;28;20030;-57
2022/01/17 07:00:53;;;;;;;10.43;7.45;;;;;;;;;;5017904;28;20115;-56
2022/01/17 07:03:19;;;;;;;9.70;7.45;;;;;;;;;;5021383;28;20030;-55
2022/01/17 07:05:45;;;;;;;14.45;9.40;;;;;;;;;;5016386;28;20018;-58
2022/01/17 07:08:10;;;;;;;17.67;12.52;;;;;;;;;;5021925;28;20036;-55
2022/01/17 07:10:36;;;;;;;14.25;9.50;;;;;;;;;;5024244;28;20045;-56
2022/01/17 07:13:02;;;;;;;13.45;8.45;;;;;;;;;;5023698;28;20025;-55
2022/01/17 07:15:28;;;;;;;14.88;8.30;;;;;;;;;;5021205;28;20497;-55
2022/01/17 07:17:54;;;;;;;16.52;8.75;;;;;;;;;;5022002;28;20161;-53
2022/01/17 07:20:19;;;;;;;9.50;6.55;;;;;;;;;;5025617;28;20128;-56
2022/01/17 07:22:45;;;;;;;11.68;7.55;;;;;;;;;;5017157;28;20033;-55
2022/01/17 07:25:11;;;;;;;8.52;6.10;;;;;;;;;;5020294;28;20367;-54
2022/01/17 07:27:40;;;;;;;10.27;6.20;;;;;;;;;;5025316;28;20494;-56
2022/01/17 07:30:07;;;;;;;8.02;6.38;;;;;;;;;;5023174;28;20029;-53
2022/01/17 07:32:34;;;;;;;13.10;6.35;;;;;;;;;;5028102;28;20036;-54
2022/01/17 07:34:59;;;;;;;12.05;7.55;;;;;;;;;;5026482;28;20382;-54
2022/01/17 07:37:25;;;;;;;13.65;7.50;;;;;;;;;;5024841;28;20037;-54
2022/01/17 07:39:51;;;;;;;12.88;7.53;;;;;;;;;;5026318;28;20120;-53
2022/01/17 07:42:17;;;;;;;11.18;7.57;;;;;;;;;;5020965;28;23016;-58
2022/01/17 07:44:44;;;;;;;14.73;8.20;;;;;;;;;;5026650;28;20037;-57
2022/01/17 07:47:17;;;;;;;17.13;9.43;;;;;;;;;;5020643;28;20045;-57
2022/01/17 07:49:45;;;;;;;13.30;8.80;;;;;;;;;;5019991;28;20036;-53
2022/01/17 07:52:11;;;;;;;9.85;7.32;;;;;;;;;;5020456;28;20395;-54
2022/01/17 07:54:43;;;;;;;13.27;6.72;;;;;;;;;;5026757;28;20033;-54
2022/01/17 07:57:12;;;;;;;9.73;7.13;;;;;;;;;;5021423;28;20037;-55
2022/01/17 07:59:39;;;;;;;14.00;6.88;;;;;;;;;;5022077;28;20040;-55
2022/01/17 08:02:05;;;;;;;10.07;5.97;;;;;;;;;;5022369;28;20072;-55
2022/01/17 08:04:30;;;;;;;15.52;6.20;;;;;;;;;;5021572;28;20494;-57
2022/01/17 08:06:56;;;;;;;13.05;6.63;;;;;;;;;;5022587;28;20042;-55
2022/01/17 08:09:26;;;;;;;11.77;7.07;;;;;;;;;;5020532;28;20030;-57
2022/01/17 08:11:52;;;;;;;11.25;6.57;;;;;;;;;;5018700;28;20037;-56
2022/01/17 08:14:18;;;;;;;10.93;6.75;;;;;;;;;;5022360;28;20029;-58
2022/01/17 08:16:43;;;;;;;33.38;20.33;;;;;;;;;;5026000;28;20033;-57
2022/01/17 08:19:09;;;;;;;12.88;9.57;;;;;;;;;;5021393;28;20041;-54
2022/01/17 08:21:35;;;;;;;13.73;9.15;;;;;;;;;;5025065;28;20490;-53
2022/01/17 08:24:01;;;;;;;11.93;7.72;;;;;;;;;;5024810;28;20080;-56
2022/01/17 08:26:27;;;;;;;23.90;15.93;;;;;;;;;;5016572;28;20033;-57
2022/01/17 08:28:53;;;;;;;45.10;25.58;;;;;;;;;;5022551;28;20021;-54
2022/01/17 08:31:19;;;;;;;31.90;16.95;;;;;;;;;;5022241;28;20033;-55
2022/01/17 08:33:45;;;;;;;17.92;10.82;;;;;;;;;;5022183;28;20083;-57
2022/01/17 08:36:11;;;;;;;30.35;17.50;;;;;;;;;;5025174;28;20207;-55
2022/01/17 08:38:38;;;;;;;20.17;13.55;;;;;;;;;;5025113;28;20021;-54
2022/01/17 08:41:04;;;;;;;22.77;13.27;;;;;;;;;;5024522;28;20033;-57
2022/01/17 08:43:30;;;;;;;26.25;16.90;;;;;;;;;;5026628;28;20041;-54
2022/01/17 08:45:56;;;;;;;23.77;13.85;;;;;;;;;;5025129;28;20048;-56
2022/01/17 08:48:23;;;;;;;27.08;13.98;;;;;;;;;;5022939;28;20025;-55
2022/01/17 08:50:50;;;;;;;50.60;27.13;;;;;;;;;;5024661;28;20399;-58
2022/01/17 08:53:17;;;;;;;55.97;32.70;;;;;;;;;;5026570;28;20430;-55
2022/01/17 08:55:45;;;;;;;63.78;32.80;;;;;;;;;;5022809;28;20117;-55
2022/01/17 08:58:12;;;;;;;41.42;22.90;;;;;;;;;;5020682;28;20311;-55
2022/01/17 09:00:38;;;;;;;33.33;16.83;;;;;;;;;;5024883;28;20025;-54
2022/01/17 09:03:04;;;;;;;17.00;8.93;;;;;;;;;;5024472;28;20086;-56
2022/01/17 09:05:32;;;;;;;20.73;10.95;;;;;;;;;;5021660;28;20470;-54
2022/01/17 09:07:59;;;;;;;42.03;18.48;;;;;;;;;;5028781;28;20364;-54
2022/01/17 09:10:25;;;;;;;41.30;21.67;;;;;;;;;;5029894;28;20030;-57
2022/01/17 09:12:52;;;;;;;63.67;28.77;;;;;;;;;;5028343;28;20367;-56
2022/01/17 09:15:18;;;;;;;21.33;11.35;;;;;;;;;;5026737;28;20375;-55
2022/01/17 09:17:44;;;;;;;49.75;22.23;;;;;;;;;;5024529;28;20102;-56
2022/01/17 09:20:11;;;;;;;38.97;20.20;;;;;;;;;;5029670;28;20403;-57
2022/01/17 09:22:37;;;;;;;49.58;25.40;;;;;;;;;;5028241;28;20033;-52
2022/01/17 09:25:06;;;;;;;19.90;11.70;;;;;;;;;;5028282;28;20040;-55
2022/01/17 09:27:36;;;;;;;30.15;16.08;;;;;;;;;;5021859;28;20038;-52
2022/01/17 09:30:08;;;;;;;31.48;14.27;;;;;;;;;;5022918;28;20045;-56
2022/01/17 09:32:34;;;;;;;11.83;5.70;;;;;;;;;;5026543;28;20040;-54
2022/01/17 09:35:00;;;;;;;9.98;5.25;;;;;;;;;;5024631;28;20740;-55
2022/01/17 09:37:26;;;;;;;8.02;5.25;;;;;;;;;;5028423;28;20091;-54
2022/01/17 09:39:51;;;;;;;8.00;5.50;;;;;;;;;;5029935;28;20033;-54
2022/01/17 09:42:17;;;;;;;9.10;5.85;;;;;;;;;;5024682;28;20097;-55
2022/01/17 09:44:43;;;;;;;7.90;6.18;;;;;;;;;;5027202;28;20049;-56
2022/01/17 09:47:11;;;;;;;25.20;13.65;;;;;;;;;;5027527;28;20033;-57
2022/01/17 09:49:43;;;;;;;27.35;16.73;;;;;;;;;;5024529;28;20033;-57
2022/01/17 09:55:10;;;;;;;9.38;7.38;;;;;;;;;;5026858;28;20079;-56
2022/01/17 09:58:00;;;;;;;12.55;6.95;;;;;;;;;;5022312;28;20061;-55
2022/01/17 10:00:28;;;;;;;9.88;6.85;;;;;;;;;;5020919;28;20040;-56
2022/01/17 10:03:07;;;;;;;13.60;8.38;;;;;;;;;;5023921;28;20505;-56
2022/01/17 10:05:34;;;;;;;16.70;8.02;;;;;;;;;;5023459;28;20107;-57
2022/01/17 10:08:04;;;;;;;15.40;6.25;;;;;;;;;;5020482;28;20030;-56
2022/01/17 10:10:58;;;;;;;15.70;5.53;;;;;;;;;;5022324;28;20500;-57
2022/01/17 10:13:31;;;;;;;12.40;5.97;;;;;;;;;;5026033;28;20030;-57
2022/01/17 10:16:05;;;;;;;9.38;5.95;;;;;;;;;;5024547;28;20026;-57
2022/01/17 10:18:33;;;;;;;9.68;5.18;;;;;;;;;;5025617;28;20037;-56
2022/01/17 10:21:05;;;;;;;11.82;5.38;;;;;;;;;;5023003;28;20053;-54
2022/01/17 10:24:07;;;;;;;8.45;5.05;;;;;;;;;;5027047;28;20087;-56
2022/01/17 10:29:39;;;;;;;7.40;5.57;;;;;;;;;;5026252;28;20168;-56
2022/01/17 10:34:57;;;;;;;6.93;5.43;;;;;;;;;;5024237;28;20021;-53
2022/01/17 10:37:29;;;;;;;9.80;5.47;;;;;;;;;;5026204;28;20017;-55
2022/01/17 10:39:57;;;;;;;8.60;5.47;;;;;;;;;;5025614;28;20037;-57
2022/01/17 10:42:31;;;;;;;6.50;5.05;;;;;;;;;;5024686;28;20622;-58
2022/01/17 10:45:07;;;;;;;8.40;5.35;;;;;;;;;;5026350;28;20077;-56
2022/01/17 10:47:36;;;;;;;5.53;4.90;;;;;;;;;;5024623;28;20030;-56
2022/01/17 10:50:08;;;;;;;19.75;10.63;;;;;;;;;;5026099;28;20045;-56
2022/01/17 10:52:36;;;;;;;8.25;5.80;;;;;;;;;;5030910;28;20053;-55
2022/01/17 10:55:12;;;;;;;7.25;5.50;;;;;;;;;;5027337;28;20539;-54
2022/01/17 10:57:42;;;;;;;7.88;5.05;;;;;;;;;;5025645;28;20030;-57
2022/01/17 11:00:13;;;;;;;6.63;5.00;;;;;;;;;;5023749;28;20502;-55
2022/01/17 11:02:42;;;;;;;9.88;5.93;;;;;;;;;;5024372;28;20140;-57
2022/01/17 11:05:11;;;;;;;14.80;5.97;;;;;;;;;;5023564;28;20113;-57
2022/01/17 11:07:39;;;;;;;9.65;5.97;;;;;;;;;;5023960;28;20057;-55
2022/01/17 11:10:08;;;;;;;7.63;5.53;;;;;;;;;;5019321;28;20094;-56
2022/01/17 11:12:34;;;;;;;10.07;4.35;;;;;;;;;;5024320;28;20399;-57
2022/01/17 11:15:00;;;;;;;12.35;7.55;;;;;;;;;;5025795;28;20036;-54
2022/01/17 11:17:38;;;;;;;7.88;5.15;;;;;;;;;;5017810;28;20029;-55
2022/01/17 11:20:08;;;;;;;6.95;4.90;;;;;;;;;;5024304;28;20055;-55
2022/01/17 11:22:40;;;;;;;9.88;4.85;;;;;;;;;;5022836;28;20087;-55
2022/01/17 11:25:09;;;;;;;7.07;4.85;;;;;;;;;;5024707;28;20488;-56
2022/01/17 11:27:35;;;;;;;4.93;4.43;;;;;;;;;;5021913;28;20037;-55
2022/01/17 11:30:03;;;;;;;6.80;5.00;;;;;;;;;;5022625;28;20041;-58
2022/01/17 11:32:31;;;;;;;5.75;4.30;;;;;;;;;;5025469;28;20034;-56
2022/01/17 11:34:58;;;;;;;6.85;4.82;;;;;;;;;;5028315;28;20079;-56
2022/01/17 11:37:26;;;;;;;6.10;4.65;;;;;;;;;;5022093;28;20929;-55
2022/01/17 11:39:56;;;;;;;6.28;4.60;;;;;;;;;;5023344;28;20108;-56
2022/01/17 11:42:31;;;;;;;8.60;5.00;;;;;;;;;;5026970;28;20099;-57
2022/01/17 11:44:57;;;;;;;5.72;4.63;;;;;;;;;;5023944;28;20033;-57
2022/01/17 11:47:48;;;;;;;6.10;4.93;;;;;;;;;;5024358;28;20033;-58
2022/01/17 11:50:30;;;;;;;7.07;4.40;;;;;;;;;;5023948;28;20148;-55
2022/01/17 11:53:09;;;;;;;16.38;5.00;;;;;;;;;;5026931;28;20063;-56
2022/01/17 11:55:44;;;;;;;4.82;4.30;;;;;;;;;;5021245;28;20056;-52
2022/01/17 11:58:38;;;;;;;6.07;4.65;;;;;;;;;;5026321;28;20029;-58
2022/01/17 12:01:04;;;;;;;6.13;5.07;;;;;;;;;;5025411;28;20029;-55
2022/01/17 12:03:49;;;;;;;9.85;5.18;;;;;;;;;;5025746;28;20048;-56
2022/01/17 12:06:25;;;;;;;9.35;5.85;;;;;;;;;;5025978;28;20052;-56
2022/01/17 12:09:20;;;;;;;7.47;4.85;;;;;;;;;;5021249;28;20044;-54
2022/01/17 12:11:48;;;;;;;5.82;4.40;;;;;;;;;;5020122;28;20108;-57
2022/01/17 12:14:30;;;;;;;4.82;4.30;;;;;;;;;;5026177;28;20037;-58
2022/01/17 12:17:23;;;;;;;4.63;3.88;;;;;;;;;;5024464;28;20497;-54
2022/01/17 12:20:04;;;;;;;;;;;;;;;;;;5024958;28;20077;-53
2022/01/17 12:22:31;;;;;;;5.88;4.30;;;;;;;;;;5026255;28;19975;-56
2022/01/17 12:25:00;;;;;;;6.05;3.95;;;;;;;;;;5022407;28;20057;-55
2022/01/17 12:27:28;;;;;;;5.15;4.35;;;;;;;;;;5017207;28;20103;-56
2022/01/17 12:29:55;;;;;;;5.22;4.00;;;;;;;;;;5025177;28;20026;-57
2022/01/17 12:32:23;;;;;;;6.60;3.90;;;;;;;;;;5024058;28;20458;-53
2022/01/17 12:34:56;;;;;;;8.85;4.50;;;;;;;;;;5022751;28;20098;-56
2022/01/17 12:37:36;;;;;;;;;;;;;;;;;;5017415;28;20087;-54
2022/01/17 12:40:38;;;;;;;6.38;3.90;;;;;;;;;;5025984;28;19921;-57
2022/01/17 12:43:09;;;;;;;4.47;4.07;;;;;;;;;;5017583;28;20506;-56
2022/01/17 12:45:47;;;;;;;6.10;4.30;;;;;;;;;;5020278;28;20382;-57
2022/01/17 12:48:16;;;;;;;4.10;3.70;;;;;;;;;;5016997;28;20026;-56
2022/01/17 12:50:45;;;;;;;5.43;3.95;;;;;;;;;;5020640;28;20026;-56
2022/01/17 12:53:13;;;;;;;10.93;4.07;;;;;;;;;;5017741;28;20120;-55
2022/01/17 12:55:53;;;;;;;3.95;3.60;;;;;;;;;;5020152;28;20032;-57
2022/01/17 12:58:33;;;;;;;7.07;3.40;;;;;;;;;;5020359;28;20040;-55
2022/01/17 13:01:01;;;;;;;5.80;3.67;;;;;;;;;;5050068;28;20096;-56
2022/01/17 13:03:33;;;;;;;4.63;3.65;;;;;;;;;;5022874;28;20115;-57
2022/01/17 13:06:01;;;;;;;4.25;3.20;;;;;;;;;;5024206;28;20112;-57
2022/01/17 13:08:27;;;;;;;3.85;3.38;;;;;;;;;;5023681;28;20037;-58
2022/01/17 13:10:55;;;;;;;3.38;3.00;;;;;;;;;;5021969;28;20505;-57
2022/01/17 13:13:21;;;;;;;4.15;3.75;;;;;;;;;;5025354;28;20048;-56
2022/01/17 13:16:02;;;;;;;4.10;3.28;;;;;;;;;;5022000;28;20525;-58
2022/01/17 13:18:30;;;;;;;4.65;3.22;;;;;;;;;;5013489;28;20068;-53
2022/01/17 13:20:58;;;;;;;5.60;3.55;;;;;;;;;;5022837;28;20439;-58
2022/01/17 13:23:49;;;;;;;5.30;3.60;;;;;;;;;;5020551;28;20462;-56
2022/01/17 13:26:19;;;;;;;4.20;3.40;;;;;;;;;;5018822;28;20461;-57
2022/01/17 13:28:53;;;;;;;4.63;3.42;;;;;;;;;;5019397;28;20025;-56
2022/01/17 13:31:21;;;;;;;3.67;3.38;;;;;;;;;;5026606;28;20038;-54
2022/01/17 13:33:47;;;;;;;3.35;3.05;;;;;;;;;;5026327;28;20021;-56
2022/01/17 13:36:25;;;;;;;3.60;3.25;;;;;;;;;;5025882;28;20103;-54
2022/01/17 13:39:14;;;;;;;5.20;3.25;;;;;;;;;;5014415;28;20076;-56
2022/01/17 13:41:45;;;;;;;4.90;3.00;;;;;;;;;;5017995;28;20041;-57
2022/01/17 13:44:11;;;;;;;4.10;3.13;;;;;;;;;;5026285;28;20041;-57
2022/01/17 13:46:51;;;;;;;5.57;4.00;;;;;;;;;;5021316;28;20044;-55
2022/01/17 13:49:17;;;;;;;8.38;3.72;;;;;;;;;;5025412;28;20032;-57
2022/01/17 13:51:45;;;;;;;4.78;3.88;;;;;;;;;;5024281;28;20022;-54
2022/01/17 13:54:11;;;;;;;3.75;3.30;;;;;;;;;;5025376;28;20072;-59
2022/01/17 13:56:37;;;;;;;7.60;3.42;;;;;;;;;;5027629;28;20049;-58
2022/01/17 13:59:04;;;;;;;8.55;4.63;;;;;;;;;;5030742;28;20026;-55
2022/01/17 14:01:37;;;;;;;5.32;4.45;;;;;;;;;;5024647;28;20052;-57
2022/01/17 14:04:13;;;;;;;;;;;;;;;;;;5024987;28;20037;-58
2022/01/17 14:06:39;;;;;;;5.28;3.90;;;;;;;;;;5026231;28;19923;-56
2022/01/17 14:09:06;;;;;;;10.45;4.55;;;;;;;;;;5027130;28;20113;-54
2022/01/17 14:11:35;;;;;;;6.93;5.60;;;;;;;;;;5026129;28;20029;-56
2022/01/17 14:14:01;;;;;;;9.27;6.35;;;;;;;;;;5022728;28;20029;-55
2022/01/17 14:16:35;;;;;;;4.88;3.85;;;;;;;;;;5024471;28;20045;-56
2022/01/17 14:19:07;;;;;;;5.35;4.30;;;;;;;;;;5027274;28;20561;-55
2022/01/17 14:21:38;;;;;;;4.10;3.70;;;;;;;;;;5025049;28;20030;-56
2022/01/17 14:24:21;;;;;;;5.70;3.78;;;;;;;;;;5027309;28;20033;-53
2022/01/17 14:26:55;;;;;;;6.00;4.20;;;;;;;;;;5022564;28;20037;-57
2022/01/17 14:29:24;;;;;;;5.93;3.88;;;;;;;;;;5025599;28;20100;-57
2022/01/17 14:31:52;;;;;;;4.78;3.45;;;;;;;;;;5029185;28;20028;-54
2022/01/17 14:34:21;;;;;;;5.13;3.63;;;;;;;;;;5027026;28;20040;-57
2022/01/17 14:37:07;;;;;;;3.95;3.47;;;;;;;;;;5019944;28;20123;-55
2022/01/17 14:39:44;;;;;;;6.00;3.72;;;;;;;;;;5020914;28;20029;-56
2022/01/17 14:42:13;;;;;;;3.65;3.25;;;;;;;;;;5027445;28;20113;-57
2022/01/17 14:44:43;;;;;;;3.97;3.47;;;;;;;;;;5027320;28;20033;-57
2022/01/17 14:47:14;;;;;;;5.45;3.55;;;;;;;;;;5021927;28;20124;-52
2022/01/17 14:49:44;;;;;;;12.00;3.65;;;;;;;;;;5024941;28;20036;-53
2022/01/17 14:52:18;;;;;;;4.72;3.47;;;;;;;;;;5022290;28;20040;-55
2022/01/17 14:55:05;;;;;;;4.32;3.60;;;;;;;;;;5021434;28;20410;-56
2022/01/17 15:00:43;;;;;;;8.10;3.45;;;;;;;;;;5018416;28;20479;-56
2022/01/17 15:05:32;;;;;;;4.57;3.13;;;;;;;;;;5028058;28;20018;-54
2022/01/17 15:07:58;;;;;;;5.95;3.42;;;;;;;;;;5025195;28;20033;-54
2022/01/17 15:10:26;;;;;;;5.05;4.55;;;;;;;;;;5026781;28;20082;-56
2022/01/17 15:12:52;;;;;;;5.07;4.30;;;;;;;;;;5025397;28;20418;-57
2022/01/17 15:15:18;;;;;;;3.95;3.50;;;;;;;;;;5028006;28;20025;-55
2022/01/17 15:17:47;;;;;;;4.75;3.60;;;;;;;;;;5026956;28;20025;-57
2022/01/17 15:20:14;;;;;;;5.63;3.38;;;;;;;;;;5026411;28;20478;-57